Time;durP1;ratioP1;P1;durP2;ratioP2;P2;SDS_P1;SDS_P2;PMS_P1;PMS_P2;Temp;Humidity;BMP_temperature;BMP_pressure;BME280_temperature;BME280_humidity;BME280_pressure;Samples;Min_cycle;Max_cycle;Signal;HPM_P1;HPM_P2
2023/05/02 00:01:43;;;;;;;1.98;1.87;;;16.50;57.60;;;;;;912412;153;27393;-75
2023/05/02 00:04:10;;;;;;;2.72;2.22;;;16.50;57.60;;;;;;934989;149;27362;-76
2023/05/02 00:06:36;;;;;;;2.22;2.10;;;16.50;57.70;;;;;;911860;152;27840;-76
2023/05/02 00:09:03;;;;;;;2.25;2.00;;;16.50;57.80;;;;;;927498;150;27326;-75
2023/05/02 00:11:30;;;;;;;2.20;2.10;;;16.40;57.70;;;;;;933382;149;27389;-76
2023/05/02 00:13:56;;;;;;;2.37;2.17;;;16.40;57.80;;;;;;934779;150;27419;-76
2023/05/02 00:16:23;;;;;;;1.80;1.70;;;16.40;57.80;;;;;;934951;149;27452;-76
2023/05/02 00:18:49;;;;;;;2.08;1.98;;;16.30;57.80;;;;;;934904;149;27512;-76
2023/05/02 00:21:16;;;;;;;2.37;2.20;;;16.30;58.00;;;;;;951761;148;27260;-76
2023/05/02 00:23:43;;;;;;;2.20;2.10;;;16.20;58.00;;;;;;952046;148;27364;-76
2023/05/02 00:26:09;;;;;;;2.65;1.95;;;16.20;58.10;;;;;;951107;148;27835;-76
2023/05/02 00:28:36;;;;;;;2.00;1.90;;;16.20;58.20;;;;;;952082;148;27343;-76
2023/05/02 00:31:02;;;;;;;2.60;2.40;;;16.10;58.30;;;;;;951264;148;27396;-75
2023/05/02 00:33:29;;;;;;;2.40;2.20;;;16.10;58.30;;;;;;951154;148;27439;-76
2023/05/02 00:35:56;;;;;;;2.08;1.90;;;16.10;58.40;;;;;;951720;148;27343;-75
2023/05/02 00:38:22;;;;;;;2.30;2.17;;;16.00;58.40;;;;;;933352;151;27450;-75
2023/05/02 00:40:50;;;;;;;2.52;2.30;;;16.00;58.50;;;;;;948828;151;27440;-76
2023/05/02 00:43:16;;;;;;;2.40;2.20;;;16.00;58.60;;;;;;949084;151;27414;-75
2023/05/02 00:45:42;;;;;;;2.12;2.02;;;15.90;58.70;;;;;;949166;151;27319;-76
2023/05/02 00:48:09;;;;;;;2.52;2.33;;;15.90;58.80;;;;;;949671;151;27458;-75
2023/05/02 00:50:39;;;;;;;2.02;1.92;;;15.90;58.90;;;;;;949987;151;27432;-76
2023/05/02 00:53:05;;;;;;;2.10;2.00;;;15.90;59.00;;;;;;948753;151;27416;-76
2023/05/02 00:55:32;;;;;;;2.58;2.30;;;15.90;58.90;;;;;;949175;148;27294;-76
2023/05/02 00:57:58;;;;;;;3.98;2.58;;;15.80;59.00;;;;;;948579;151;27361;-76
2023/05/02 01:00:24;;;;;;;2.62;2.42;;;15.80;59.00;;;;;;930043;150;27448;-76
2023/05/02 01:02:51;;;;;;;2.70;2.50;;;15.80;59.10;;;;;;928841;150;27421;-75
2023/05/02 01:05:18;;;;;;;2.60;2.40;;;15.70;59.10;;;;;;933871;150;27356;-76
2023/05/02 01:08:02;;;;;;;2.60;2.40;;;15.60;59.10;;;;;;951310;148;27363;-76
2023/05/02 01:10:43;;;;;;;3.10;2.47;;;15.60;59.30;;;;;;950885;148;27492;-76
2023/05/02 01:13:22;;;;;;;3.02;2.70;;;15.50;59.30;;;;;;951582;148;27803;-76
2023/05/02 01:15:49;;;;;;;2.70;2.50;;;15.30;59.30;;;;;;933994;151;27536;-76
2023/05/02 01:18:17;;;;;;;2.57;2.37;;;15.20;59.50;;;;;;950959;148;27436;-75
2023/05/02 01:20:42;;;;;;;3.13;2.70;;;15.20;59.70;;;;;;942569;148;27440;-76
2023/05/02 01:23:11;;;;;;;2.92;2.72;;;15.10;60.00;;;;;;911792;152;27356;-76
2023/05/02 01:26:08;;;;;;;3.37;2.70;;;15.00;60.10;;;;;;904634;152;27399;-75
2023/05/02 01:28:53;;;;;;;3.83;3.15;;;14.90;60.30;;;;;;883226;159;27508;-76
2023/05/02 01:31:19;;;;;;;3.17;2.97;;;14.90;60.30;;;;;;885610;159;27453;-76
2023/05/02 01:33:46;;;;;;;3.60;3.30;;;14.90;60.60;;;;;;902406;152;27310;-75
2023/05/02 01:36:12;;;;;;;3.57;3.27;;;14.80;60.80;;;;;;934035;149;27294;-75
2023/05/02 01:38:39;;;;;;;3.30;3.10;;;14.80;61.10;;;;;;917982;152;27393;-76
2023/05/02 01:41:06;;;;;;;3.60;3.30;;;14.80;61.20;;;;;;934432;149;27458;-76
2023/05/02 01:43:32;;;;;;;4.12;3.77;;;14.80;61.40;;;;;;911467;152;27360;-76
2023/05/02 01:45:59;;;;;;;4.70;4.03;;;14.80;61.40;;;;;;918106;152;27444;-76
2023/05/02 01:48:26;;;;;;;4.13;3.83;;;14.80;61.50;;;;;;911412;153;27816;-76
2023/05/02 01:50:52;;;;;;;4.43;3.80;;;14.80;61.50;;;;;;934779;149;27369;-76
2023/05/02 01:53:21;;;;;;;4.23;3.90;;;14.80;61.60;;;;;;934931;149;27814;-75
2023/05/02 01:55:45;;;;;;;4.03;3.73;;;14.80;61.70;;;;;;911799;152;27401;-75
2023/05/02 01:58:12;;;;;;;4.47;4.17;;;14.70;62.10;;;;;;917745;152;27312;-76
2023/05/02 02:00:38;;;;;;;3.90;3.60;;;14.70;61.60;;;;;;934490;149;27329;-75
2023/05/02 02:03:05;;;;;;;3.63;3.33;;;14.60;61.70;;;;;;913067;153;27497;-74
2023/05/02 02:05:31;;;;;;;4.07;3.53;;;14.60;61.70;;;;;;935444;149;27415;-74
2023/05/02 02:07:58;;;;;;;4.10;3.80;;;14.50;61.70;;;;;;911558;152;27328;-74
2023/05/02 02:10:25;;;;;;;5.63;4.37;;;14.40;61.90;;;;;;934441;149;27749;-74
2023/05/02 02:12:51;;;;;;;4.37;4.07;;;14.40;62.10;;;;;;922799;152;27408;-74
2023/05/02 02:15:18;;;;;;;4.97;4.37;;;14.30;62.30;;;;;;919054;152;27437;-74
2023/05/02 02:18:00;;;;;;;5.00;4.50;;;14.20;62.50;;;;;;934347;149;27326;-74
2023/05/02 02:20:26;;;;;;;4.87;4.47;;;14.20;62.80;;;;;;936595;148;27558;-74
2023/05/02 02:22:53;;;;;;;4.83;4.43;;;14.00;62.70;;;;;;945957;148;27265;-74
2023/05/02 02:25:20;;;;;;;5.30;4.80;;;14.00;63.00;;;;;;946928;148;27386;-74
2023/05/02 02:27:46;;;;;;;5.17;4.77;;;13.90;63.30;;;;;;947137;149;27335;-77
2023/05/02 02:30:13;;;;;;;7.80;5.30;;;13.80;63.30;;;;;;947098;149;27276;-77
2023/05/02 02:32:39;;;;;;;7.63;5.03;;;13.80;63.60;;;;;;947650;148;27264;-77
2023/05/02 02:35:06;;;;;;;5.93;4.40;;;13.70;63.80;;;;;;947435;148;27433;-77
2023/05/02 02:37:32;;;;;;;5.23;4.83;;;13.60;63.90;;;;;;946890;149;27359;-77
2023/05/02 02:40:26;;;;;;;4.97;4.50;;;13.60;64.20;;;;;;946813;148;27307;-77
2023/05/02 02:42:53;;;;;;;5.73;5.23;;;13.60;64.20;;;;;;944885;149;27304;-78
2023/05/02 02:45:37;;;;;;;6.87;5.77;;;13.50;64.00;;;;;;947083;148;27299;-77
2023/05/02 02:48:07;;;;;;;5.40;4.93;;;13.50;64.40;;;;;;947033;148;27456;-78
2023/05/02 02:50:39;;;;;;;6.27;5.77;;;13.40;64.30;;;;;;930593;151;27330;-77
2023/05/02 02:53:06;;;;;;;7.10;6.50;;;13.40;64.60;;;;;;912229;151;27324;-77
2023/05/02 02:55:36;;;;;;;7.53;6.47;;;13.30;64.80;;;;;;947027;148;27368;-77
2023/05/02 02:58:02;;;;;;;7.40;6.70;;;13.30;64.90;;;;;;947022;148;27346;-77
2023/05/02 03:00:28;;;;;;;7.70;6.83;;;13.30;65.20;;;;;;946453;148;27316;-77
2023/05/02 03:02:55;;;;;;;7.20;6.50;;;13.30;65.40;;;;;;926190;151;27368;-77
2023/05/02 03:05:22;;;;;;;7.07;6.47;;;13.20;65.50;;;;;;931385;151;27382;-77
2023/05/02 03:07:48;;;;;;;8.73;7.30;;;13.30;65.70;;;;;;931142;151;27502;-77
2023/05/02 03:10:15;;;;;;;7.50;6.80;;;13.20;66.50;;;;;;927682;151;27483;-77
2023/05/02 03:12:42;;;;;;;7.33;6.70;;;13.20;65.90;;;;;;929953;151;27435;-77
2023/05/02 03:15:30;;;;;;;6.20;5.60;;;13.30;66.00;;;;;;937958;148;27384;-77
2023/05/02 03:17:56;;;;;;;6.83;6.23;;;13.20;66.00;;;;;;927133;151;27344;-78
2023/05/02 03:20:23;;;;;;;7.83;6.67;;;13.20;65.80;;;;;;947325;149;27360;-77
2023/05/02 03:22:49;;;;;;;7.20;6.60;;;13.20;66.10;;;;;;936113;149;27544;-78
2023/05/02 03:25:16;;;;;;;8.17;6.73;;;13.10;66.00;;;;;;917979;152;27285;-77
2023/05/02 03:27:43;;;;;;;7.30;6.70;;;13.10;66.10;;;;;;934744;149;27450;-77
2023/05/02 03:30:09;;;;;;;6.67;6.13;;;13.00;66.20;;;;;;921313;152;27365;-77
2023/05/02 03:32:36;;;;;;;7.00;6.40;;;12.90;66.20;;;;;;918836;152;27467;-77
2023/05/02 03:35:02;;;;;;;7.50;6.70;;;12.90;65.60;;;;;;918111;152;27451;-77
2023/05/02 03:37:29;;;;;;;7.50;6.80;;;12.90;66.50;;;;;;933681;151;27392;-77
2023/05/02 03:39:56;;;;;;;6.87;6.27;;;12.80;66.60;;;;;;932950;151;27364;-77
2023/05/02 03:42:22;;;;;;;7.37;6.67;;;12.80;66.80;;;;;;934332;151;27385;-77
2023/05/02 03:44:49;;;;;;;8.93;7.00;;;12.70;66.90;;;;;;932842;151;27420;-77
2023/05/02 03:47:15;;;;;;;8.13;6.83;;;12.60;67.10;;;;;;932734;151;27292;-77
2023/05/02 03:49:42;;;;;;;7.63;6.83;;;12.60;67.30;;;;;;932766;151;27372;-77
2023/05/02 03:52:08;;;;;;;6.20;5.63;;;12.50;67.50;;;;;;933407;151;27403;-77
2023/05/02 03:54:35;;;;;;;6.17;5.47;;;12.50;67.60;;;;;;933040;151;27368;-77
2023/05/02 03:57:03;;;;;;;5.37;4.87;;;12.40;67.80;;;;;;932689;151;27697;-77
2023/05/02 03:59:29;;;;;;;5.67;5.17;;;12.40;67.80;;;;;;932927;151;27431;-77
2023/05/02 04:01:55;;;;;;;5.43;4.93;;;12.40;68.00;;;;;;933424;151;27404;-77
2023/05/02 04:04:21;;;;;;;5.70;5.20;;;12.30;68.10;;;;;;933540;151;27385;-77
2023/05/02 04:06:48;;;;;;;4.87;4.47;;;12.30;68.20;;;;;;933086;151;27462;-77
2023/05/02 04:09:15;;;;;;;4.63;4.23;;;12.20;68.20;;;;;;933465;151;27469;-77
2023/05/02 04:11:41;;;;;;;4.50;4.10;;;12.20;68.50;;;;;;933122;151;27391;-77
2023/05/02 04:14:08;;;;;;;6.00;4.20;;;12.20;68.70;;;;;;932982;151;27384;-77
2023/05/02 04:16:34;;;;;;;5.00;4.47;;;12.20;69.00;;;;;;932977;151;27443;-77
2023/05/02 04:19:01;;;;;;;4.20;3.90;;;12.20;69.30;;;;;;933514;151;27337;-77
2023/05/02 04:21:27;;;;;;;5.87;4.30;;;12.20;69.50;;;;;;933634;150;27458;-77
2023/05/02 04:23:54;;;;;;;4.73;4.33;;;12.30;70.40;;;;;;924164;153;27472;-77
2023/05/02 04:26:21;;;;;;;5.17;4.67;;;12.30;69.80;;;;;;942429;150;27452;-77
2023/05/02 04:28:47;;;;;;;4.50;4.20;;;12.40;69.90;;;;;;917104;153;27349;-77
2023/05/02 04:31:14;;;;;;;5.27;4.80;;;12.50;70.00;;;;;;925817;154;27379;-77
2023/05/02 04:33:40;;;;;;;5.00;4.50;;;12.50;70.00;;;;;;917718;153;27440;-77
2023/05/02 04:36:07;;;;;;;5.10;4.60;;;12.60;70.00;;;;;;916805;155;27470;-77
2023/05/02 04:38:34;;;;;;;4.60;4.20;;;12.60;70.70;;;;;;918835;152;27875;-77
2023/05/02 04:41:00;;;;;;;5.37;4.87;;;12.70;70.10;;;;;;941903;152;27314;-77
2023/05/02 04:43:27;;;;;;;5.47;4.97;;;12.80;70.10;;;;;;942323;152;27313;-77
2023/05/02 04:45:53;;;;;;;6.10;5.50;;;12.90;70.20;;;;;;924561;152;27455;-77
2023/05/02 04:48:20;;;;;;;6.13;5.53;;;12.90;70.10;;;;;;918984;153;27362;-77
2023/05/02 04:50:47;;;;;;;6.63;5.27;;;13.00;70.30;;;;;;918963;152;27311;-77
2023/05/02 04:53:13;;;;;;;6.20;5.63;;;13.00;70.10;;;;;;942344;150;27333;-77
2023/05/02 04:55:41;;;;;;;6.00;5.43;;;13.10;70.20;;;;;;931866;152;27457;-77
2023/05/02 04:58:06;;;;;;;7.30;5.30;;;13.20;70.20;;;;;;917448;153;27911;-77
2023/05/02 05:00:33;;;;;;;5.37;4.97;;;13.20;70.10;;;;;;941726;150;27324;-77
2023/05/02 05:02:59;;;;;;;5.50;5.07;;;13.30;70.10;;;;;;941709;152;27402;-77
2023/05/02 05:05:26;;;;;;;5.93;5.27;;;13.30;70.00;;;;;;942553;152;27363;-77
2023/05/02 05:07:53;;;;;;;6.83;6.10;;;13.40;70.20;;;;;;942362;151;27368;-77
2023/05/02 05:10:19;;;;;;;6.67;6.07;;;13.40;70.20;;;;;;925563;152;27310;-77
2023/05/02 05:12:48;;;;;;;7.57;6.10;;;13.50;70.30;;;;;;926215;154;27429;-77
2023/05/02 05:15:12;;;;;;;6.53;6.03;;;13.60;70.40;;;;;;941545;152;27432;-77
2023/05/02 05:17:39;;;;;;;7.70;6.90;;;13.70;70.60;;;;;;919237;156;27478;-77
2023/05/02 05:20:06;;;;;;;7.40;6.70;;;13.80;70.70;;;;;;942231;151;27450;-77
2023/05/02 05:22:33;;;;;;;8.43;7.70;;;13.90;70.80;;;;;;933501;149;27373;-77
2023/05/02 05:24:59;;;;;;;8.07;7.37;;;14.00;70.80;;;;;;935005;149;27267;-77
2023/05/02 05:27:26;;;;;;;8.97;8.17;;;14.20;70.40;;;;;;918208;152;27420;-77
2023/05/02 05:29:52;;;;;;;9.10;8.30;;;14.30;70.30;;;;;;933596;149;27461;-77
2023/05/02 05:32:19;;;;;;;9.50;8.60;;;14.40;70.00;;;;;;933844;149;27370;-77
2023/05/02 05:34:45;;;;;;;10.17;9.17;;;14.50;69.80;;;;;;934492;150;27325;-77
2023/05/02 05:37:12;;;;;;;9.93;8.93;;;14.60;69.60;;;;;;934704;149;27387;-77
2023/05/02 05:39:38;;;;;;;9.83;8.87;;;14.70;69.40;;;;;;922640;152;27349;-78
2023/05/02 05:42:06;;;;;;;12.03;10.93;;;14.80;69.20;;;;;;912170;153;27415;-77
2023/05/02 05:44:32;;;;;;;12.90;11.70;;;14.80;68.90;;;;;;914582;152;27425;-77
2023/05/02 05:46:58;;;;;;;14.40;13.00;;;14.90;68.70;;;;;;934884;149;27309;-77
2023/05/02 05:49:25;;;;;;;14.18;12.80;;;15.00;68.60;;;;;;933896;149;27414;-77
2023/05/02 05:51:51;;;;;;;18.37;16.40;;;15.10;68.50;;;;;;912354;153;27375;-77
2023/05/02 05:54:18;;;;;;;17.05;15.35;;;15.10;68.40;;;;;;916045;153;27393;-77
2023/05/02 05:56:45;;;;;;;16.45;14.55;;;15.20;68.40;;;;;;935030;149;27431;-78
2023/05/02 05:59:11;;;;;;;17.27;15.58;;;15.30;68.40;;;;;;928082;150;27361;-77
2023/05/02 06:01:38;;;;;;;17.52;15.72;;;15.40;68.20;;;;;;918439;152;27398;-77
2023/05/02 06:04:05;;;;;;;16.73;15.03;;;15.60;68.20;;;;;;934936;149;27435;-76
2023/05/02 06:06:31;;;;;;;18.77;16.87;;;15.70;68.20;;;;;;918668;152;27363;-76
2023/05/02 06:08:58;;;;;;;18.35;16.35;;;15.90;68.20;;;;;;913893;152;27387;-75
2023/05/02 06:11:25;;;;;;;15.10;13.48;;;16.10;68.10;;;;;;934584;149;27404;-74
2023/05/02 06:13:51;;;;;;;17.40;15.65;;;16.30;68.40;;;;;;928074;150;27461;-75
2023/05/02 06:16:17;;;;;;;15.98;14.38;;;16.70;69.20;;;;;;934846;149;27431;-75
2023/05/02 06:18:44;;;;;;;17.07;15.38;;;17.10;69.20;;;;;;934733;150;27351;-75
2023/05/02 06:21:11;;;;;;;15.35;13.75;;;17.60;68.80;;;;;;927601;150;27271;-75
2023/05/02 06:23:38;;;;;;;14.60;13.25;;;18.10;69.00;;;;;;923857;150;27406;-75
2023/05/02 06:26:04;;;;;;;14.70;13.10;;;18.60;67.30;;;;;;950686;148;27443;-75
2023/05/02 06:28:30;;;;;;;14.45;13.13;;;19.00;65.90;;;;;;932386;151;27307;-75
2023/05/02 06:31:00;;;;;;;14.55;13.18;;;19.30;64.40;;;;;;949752;151;27304;-75
2023/05/02 06:33:29;;;;;;;14.90;13.45;;;19.60;63.20;;;;;;949328;151;27366;-75
2023/05/02 06:35:56;;;;;;;13.50;12.18;;;19.80;62.80;;;;;;949116;151;27464;-75
2023/05/02 06:38:23;;;;;;;12.65;11.45;;;20.10;63.10;;;;;;934527;150;27372;-75
2023/05/02 06:40:49;;;;;;;11.83;10.68;;;20.50;63.20;;;;;;951783;148;27379;-75
2023/05/02 06:43:16;;;;;;;11.93;10.82;;;20.90;62.80;;;;;;931971;151;27330;-75
2023/05/02 06:45:42;;;;;;;10.78;9.78;;;21.30;62.10;;;;;;949366;151;27363;-75
2023/05/02 06:48:09;;;;;;;10.60;9.60;;;21.90;62.10;;;;;;949585;151;27436;-75
2023/05/02 06:50:35;;;;;;;11.55;10.45;;;22.40;61.60;;;;;;949893;151;27297;-75
2023/05/02 06:53:02;;;;;;;10.82;9.75;;;23.10;60.50;;;;;;948619;151;27301;-75
2023/05/02 06:55:29;;;;;;;10.28;9.38;;;23.70;59.50;;;;;;949043;148;27351;-75
2023/05/02 06:57:55;;;;;;;10.60;9.63;;;24.20;58.50;;;;;;949248;151;27350;-76
2023/05/02 07:00:22;;;;;;;9.45;8.55;;;24.70;57.10;;;;;;932394;151;27373;-76
2023/05/02 07:02:48;;;;;;;9.43;8.40;;;25.00;55.70;;;;;;932096;151;27367;-75
2023/05/02 07:05:15;;;;;;;8.93;8.13;;;25.20;54.60;;;;;;932050;151;27382;-75
2023/05/02 07:07:42;;;;;;;9.08;8.35;;;25.20;53.50;;;;;;949493;151;27512;-75
2023/05/02 07:10:08;;;;;;;9.80;8.95;;;25.00;52.90;;;;;;948797;148;27327;-76
2023/05/02 07:12:35;;;;;;;9.10;8.10;;;24.90;52.40;;;;;;951142;148;27366;-76
2023/05/02 07:15:01;;;;;;;9.15;8.23;;;24.80;52.90;;;;;;951645;148;27297;-76
2023/05/02 07:17:28;;;;;;;11.05;9.20;;;24.80;53.40;;;;;;935752;150;27495;-75
2023/05/02 07:19:55;;;;;;;9.80;8.90;;;24.90;53.20;;;;;;933847;150;27413;-75
2023/05/02 07:22:21;;;;;;;9.65;8.75;;;24.80;52.50;;;;;;933902;150;27382;-75
2023/05/02 07:24:48;;;;;;;10.48;9.48;;;24.80;51.50;;;;;;931218;151;27318;-75
2023/05/02 07:27:14;;;;;;;9.40;8.55;;;24.80;52.40;;;;;;930164;151;27458;-75
2023/05/02 07:29:41;;;;;;;9.48;8.68;;;24.80;52.60;;;;;;946205;148;27320;-76
2023/05/02 07:32:07;;;;;;;10.32;9.33;;;24.90;52.60;;;;;;946181;148;27341;-76
2023/05/02 07:34:34;;;;;;;9.23;8.33;;;24.90;51.90;;;;;;946174;149;27319;-76
2023/05/02 07:37:01;;;;;;;8.13;7.42;;;24.90;51.70;;;;;;946194;148;27386;-76
2023/05/02 07:39:27;;;;;;;9.30;7.58;;;25.00;51.50;;;;;;946544;148;27375;-76
2023/05/02 07:41:54;;;;;;;9.20;8.43;;;25.10;51.40;;;;;;929021;151;27468;-76
2023/05/02 07:44:20;;;;;;;10.10;9.20;;;25.20;51.60;;;;;;946586;148;27375;-76
2023/05/02 07:46:47;;;;;;;9.45;8.55;;;25.40;50.80;;;;;;936545;151;27434;-76
2023/05/02 07:49:14;;;;;;;7.90;7.20;;;25.50;50.30;;;;;;944919;151;27460;-76
2023/05/02 07:51:40;;;;;;;7.87;7.12;;;25.50;50.40;;;;;;946390;151;27366;-76
2023/05/02 07:54:19;;;;;;;8.30;7.50;;;25.60;50.40;;;;;;929839;151;27348;-76
2023/05/02 07:56:46;;;;;;;7.25;6.55;;;25.70;50.20;;;;;;947245;148;27276;-76
2023/05/02 07:59:12;;;;;;;7.78;6.92;;;25.90;50.70;;;;;;947004;148;28003;-76
2023/05/02 08:01:41;;;;;;;7.67;7.00;;;26.20;51.20;;;;;;947159;148;27377;-76
2023/05/02 08:04:10;;;;;;;7.50;6.80;;;26.60;51.10;;;;;;947192;148;27643;-76
2023/05/02 08:06:35;;;;;;;7.72;6.95;;;27.00;50.30;;;;;;946503;149;27357;-76
2023/05/02 08:09:01;;;;;;;7.65;6.95;;;27.20;48.90;;;;;;947178;148;27334;-76
2023/05/02 08:11:28;;;;;;;8.50;7.78;;;27.20;47.80;;;;;;932855;151;27370;-76
2023/05/02 08:13:54;;;;;;;9.55;8.55;;;27.10;47.30;;;;;;927421;152;27304;-76
2023/05/02 08:16:21;;;;;;;8.83;7.92;;;26.80;46.70;;;;;;946920;148;27329;-76
2023/05/02 08:18:48;;;;;;;8.55;7.75;;;26.40;46.70;;;;;;947209;149;27329;-76
2023/05/02 08:21:14;;;;;;;9.55;8.65;;;26.00;46.40;;;;;;947013;148;27357;-76
2023/05/02 08:23:41;;;;;;;9.05;8.25;;;25.50;46.40;;;;;;945443;148;27320;-75
2023/05/02 08:26:07;;;;;;;9.30;8.35;;;25.10;46.60;;;;;;919465;151;27364;-76
2023/05/02 08:28:34;;;;;;;10.18;9.05;;;24.60;46.90;;;;;;934942;149;27835;-76
2023/05/02 08:31:00;;;;;;;10.38;9.28;;;24.10;47.40;;;;;;934398;149;27359;-76
2023/05/02 08:33:27;;;;;;;9.80;8.85;;;23.60;47.60;;;;;;934088;150;27491;-75
2023/05/02 08:35:54;;;;;;;10.30;9.18;;;23.10;48.00;;;;;;933699;149;27415;-76
2023/05/02 08:38:20;;;;;;;9.48;8.58;;;22.70;48.50;;;;;;934401;149;27718;-76
2023/05/02 08:40:47;;;;;;;11.10;10.00;;;22.30;49.00;;;;;;935492;149;27329;-76
2023/05/02 08:43:13;;;;;;;9.70;8.80;;;21.90;49.40;;;;;;935038;149;27401;-76
2023/05/02 08:45:40;;;;;;;10.35;9.35;;;21.50;49.90;;;;;;917390;152;27460;-75
2023/05/02 08:48:09;;;;;;;10.90;9.80;;;21.20;50.30;;;;;;910846;153;27362;-75
2023/05/02 08:50:40;;;;;;;9.68;8.78;;;21.00;50.80;;;;;;926728;152;27449;-75
2023/05/02 08:53:06;;;;;;;10.90;9.65;;;20.70;51.20;;;;;;925027;152;27459;-75
2023/05/02 08:55:32;;;;;;;9.53;7.87;;;20.50;51.40;;;;;;926874;152;27372;-76
2023/05/02 08:58:00;;;;;;;8.35;7.65;;;20.30;51.60;;;;;;926696;151;27912;-75
2023/05/02 09:00:25;;;;;;;8.75;7.50;;;20.10;52.00;;;;;;926538;151;27349;-75
2023/05/02 09:03:26;;;;;;;8.38;7.58;;;20.00;52.30;;;;;;926351;152;27350;-75
2023/05/02 09:05:54;;;;;;;7.53;6.78;;;19.80;52.50;;;;;;926654;152;27399;-75
2023/05/02 09:08:25;;;;;;;7.90;6.65;;;19.70;52.70;;;;;;913421;152;27460;-75
2023/05/02 09:10:51;;;;;;;7.28;6.65;;;19.60;52.60;;;;;;917958;152;27427;-75
2023/05/02 09:13:29;;;;;;;7.85;7.05;;;19.50;53.00;;;;;;917258;152;27354;-75
2023/05/02 09:15:59;;;;;;;7.28;6.58;;;19.40;53.10;;;;;;914268;152;27488;-75
2023/05/02 09:18:28;;;;;;;8.15;7.35;;;19.40;53.40;;;;;;918636;152;27373;-75
2023/05/02 09:20:54;;;;;;;8.03;7.22;;;19.30;53.60;;;;;;918046;152;27392;-76
2023/05/02 09:23:21;;;;;;;8.13;7.33;;;19.30;53.80;;;;;;912102;153;27409;-75
2023/05/02 09:25:48;;;;;;;7.87;7.05;;;19.30;54.00;;;;;;937727;149;27398;-75
2023/05/02 09:28:14;;;;;;;8.50;7.70;;;19.30;54.10;;;;;;931350;151;27404;-76
2023/05/02 09:30:41;;;;;;;8.60;7.70;;;19.30;54.20;;;;;;930568;151;27447;-75
2023/05/02 09:33:07;;;;;;;7.17;6.50;;;19.40;54.20;;;;;;946894;149;27445;-75
2023/05/02 09:35:34;;;;;;;7.58;6.80;;;19.40;54.20;;;;;;946529;148;27352;-76
2023/05/02 09:38:00;;;;;;;8.38;6.83;;;19.40;54.20;;;;;;930121;151;27349;-75
2023/05/02 09:40:29;;;;;;;6.78;6.17;;;19.40;54.20;;;;;;927364;152;27310;-76
2023/05/02 09:42:54;;;;;;;7.65;6.05;;;19.40;54.30;;;;;;946101;150;27319;-75
2023/05/02 09:45:20;;;;;;;9.18;6.60;;;19.50;54.50;;;;;;946020;148;27490;-75
2023/05/02 09:47:47;;;;;;;7.00;6.22;;;19.60;54.60;;;;;;945553;148;27420;-75
2023/05/02 09:50:33;;;;;;;6.70;6.00;;;19.80;54.80;;;;;;944986;151;27307;-75
2023/05/02 09:53:04;;;;;;;6.30;5.75;;;20.00;55.00;;;;;;944915;148;27328;-75
2023/05/02 09:55:31;;;;;;;6.60;5.87;;;20.30;55.10;;;;;;947589;148;27367;-75
2023/05/02 09:57:57;;;;;;;6.03;5.47;;;20.70;55.10;;;;;;947632;148;27371;-76
2023/05/02 10:00:39;;;;;;;6.53;6.03;;;21.00;54.80;;;;;;947735;148;27270;-76
2023/05/02 10:03:08;;;;;;;6.10;5.55;;;21.40;54.60;;;;;;945372;151;27735;-76
2023/05/02 10:05:38;;;;;;;7.17;5.95;;;21.80;54.40;;;;;;945863;149;27446;-76
2023/05/02 10:08:07;;;;;;;7.37;6.53;;;22.20;53.80;;;;;;925218;151;27406;-76
2023/05/02 10:10:36;;;;;;;6.17;5.60;;;22.50;52.90;;;;;;924115;151;27394;-76
2023/05/02 10:13:03;;;;;;;5.97;5.45;;;22.70;52.30;;;;;;930084;151;27427;-76
2023/05/02 10:15:32;;;;;;;5.50;4.87;;;22.90;51.80;;;;;;927751;152;27367;-76
2023/05/02 10:18:00;;;;;;;6.08;5.33;;;23.10;51.50;;;;;;928478;151;27332;-76
2023/05/02 10:20:25;;;;;;;5.83;5.25;;;23.20;51.30;;;;;;931270;151;27342;-76
2023/05/02 10:22:52;;;;;;;6.28;5.78;;;23.30;51.00;;;;;;931516;151;27290;-75
2023/05/02 10:25:19;;;;;;;6.12;5.25;;;23.40;50.80;;;;;;926010;151;27408;-76
2023/05/02 10:27:45;;;;;;;5.87;5.35;;;23.60;50.60;;;;;;919019;152;27519;-76
2023/05/02 10:30:12;;;;;;;5.47;4.97;;;23.70;50.30;;;;;;918910;152;27308;-76
2023/05/02 10:32:38;;;;;;;4.90;4.47;;;23.70;49.70;;;;;;918356;152;27417;-76
2023/05/02 10:35:05;;;;;;;5.97;5.47;;;23.70;49.30;;;;;;911936;153;27491;-76
2023/05/02 10:37:35;;;;;;;5.55;5.00;;;23.70;49.10;;;;;;934535;149;27343;-76
2023/05/02 10:39:58;;;;;;;5.90;5.33;;;23.70;49.00;;;;;;915807;152;27391;-76
2023/05/02 10:42:25;;;;;;;5.03;4.62;;;23.70;49.10;;;;;;912310;153;27442;-75
2023/05/02 10:44:51;;;;;;;5.25;4.83;;;23.60;49.20;;;;;;911294;153;27509;-76
2023/05/02 10:47:24;;;;;;;5.37;4.87;;;23.60;49.20;;;;;;927341;152;27449;-76
2023/05/02 10:49:51;;;;;;;5.62;4.87;;;23.70;49.30;;;;;;925438;152;27354;-76
2023/05/02 10:52:36;;;;;;;5.72;5.17;;;23.70;49.30;;;;;;927278;152;27449;-76
2023/05/02 10:55:18;;;;;;;5.20;4.70;;;23.80;49.10;;;;;;926974;151;27362;-76
2023/05/02 10:58:05;;;;;;;5.20;4.40;;;23.90;49.30;;;;;;926465;152;27937;-76
2023/05/02 11:00:32;;;;;;;5.37;4.75;;;24.10;49.40;;;;;;927007;152;27389;-76
2023/05/02 11:02:58;;;;;;;4.85;4.42;;;24.20;49.40;;;;;;919271;152;27348;-76
2023/05/02 11:05:25;;;;;;;4.58;4.17;;;24.40;49.30;;;;;;934069;149;27367;-76
2023/05/02 11:08:16;;;;;;;6.97;5.42;;;24.50;49.20;;;;;;911673;152;27421;-76
2023/05/02 11:10:44;;;;;;;6.33;5.58;;;24.70;48.80;;;;;;918211;152;27844;-76
2023/05/02 11:13:09;;;;;;;7.03;5.90;;;24.80;48.60;;;;;;922604;151;27453;-76
2023/05/02 11:15:42;;;;;;;6.20;5.35;;;24.90;48.20;;;;;;911308;152;27475;-76
2023/05/02 11:18:11;;;;;;;6.10;5.58;;;24.90;47.80;;;;;;917040;152;27463;-76
2023/05/02 11:20:41;;;;;;;6.00;5.40;;;24.90;48.40;;;;;;934756;149;27380;-76
2023/05/02 11:23:32;;;;;;;6.05;5.45;;;24.90;47.30;;;;;;931907;149;27503;-76
2023/05/02 11:25:45;;;;;;;5.78;5.17;;;24.90;47.10;;;;;;909221;153;27471;-76
2023/05/02 11:28:36;;;;;;;5.17;4.75;;;24.80;47.10;;;;;;928621;151;27392;-76
2023/05/02 11:31:06;;;;;;;5.67;5.17;;;24.80;47.20;;;;;;947196;148;27321;-76
2023/05/02 11:33:32;;;;;;;8.75;5.33;;;24.70;47.30;;;;;;946874;149;27446;-76
2023/05/02 11:35:59;;;;;;;5.92;4.62;;;24.70;47.30;;;;;;946640;148;27411;-76
2023/05/02 11:38:25;;;;;;;4.85;4.45;;;24.70;47.30;;;;;;947283;148;27345;-76
2023/05/02 11:40:52;;;;;;;5.53;4.87;;;24.80;47.10;;;;;;946890;149;27250;-76
2023/05/02 11:43:20;;;;;;;5.97;5.45;;;24.80;47.10;;;;;;947660;148;27356;-76
2023/05/02 11:45:45;;;;;;;6.05;5.00;;;24.80;47.00;;;;;;946862;149;27454;-76
2023/05/02 11:48:12;;;;;;;4.80;4.40;;;24.90;46.80;;;;;;947843;148;27423;-76
2023/05/02 11:50:41;;;;;;;5.20;4.58;;;24.90;46.20;;;;;;947356;148;27302;-76
2023/05/02 11:53:14;;;;;;;5.97;5.08;;;24.80;45.90;;;;;;949584;148;27445;-76
2023/05/02 11:55:49;;;;;;;4.85;4.22;;;24.60;45.70;;;;;;949953;148;27505;-76
2023/05/02 11:58:19;;;;;;;3.47;3.20;;;24.40;45.50;;;;;;930157;151;27430;-76
2023/05/02 12:00:45;;;;;;;3.47;3.17;;;24.20;45.70;;;;;;927502;151;27368;-76
2023/05/02 12:03:30;;;;;;;3.02;2.83;;;23.90;45.20;;;;;;946528;150;27961;-76
2023/05/02 12:05:56;;;;;;;2.90;2.70;;;23.70;45.30;;;;;;946429;151;27487;-76
2023/05/02 12:08:26;;;;;;;3.20;2.62;;;23.50;45.50;;;;;;943554;151;27420;-76
2023/05/02 12:10:53;;;;;;;2.30;2.20;;;23.30;45.60;;;;;;946244;151;27354;-76
2023/05/02 12:13:19;;;;;;;3.35;2.47;;;23.20;45.90;;;;;;945720;151;27337;-76
2023/05/02 12:15:46;;;;;;;2.95;2.60;;;23.10;46.20;;;;;;945912;151;27446;-76
2023/05/02 12:18:12;;;;;;;2.92;2.65;;;23.00;46.40;;;;;;946260;150;27325;-76
2023/05/02 12:20:39;;;;;;;3.30;2.98;;;23.00;46.40;;;;;;946119;151;27306;-76
2023/05/02 12:23:11;;;;;;;3.45;3.15;;;23.00;46.50;;;;;;946632;151;27331;-76
2023/05/02 12:25:41;;;;;;;3.20;2.90;;;23.00;46.60;;;;;;945630;151;27452;-76
2023/05/02 12:28:07;;;;;;;3.92;3.20;;;23.00;46.80;;;;;;946129;151;27397;-76
2023/05/02 12:30:34;;;;;;;4.67;3.55;;;23.00;47.00;;;;;;946008;151;27350;-76
2023/05/02 12:33:00;;;;;;;3.90;3.60;;;23.10;47.00;;;;;;927333;152;27413;-76
2023/05/02 12:35:30;;;;;;;3.37;3.08;;;23.20;46.80;;;;;;945519;150;27468;-76
2023/05/02 12:38:09;;;;;;;3.65;3.22;;;23.30;46.80;;;;;;946129;151;27428;-76
2023/05/02 12:40:35;;;;;;;2.98;2.77;;;23.40;46.70;;;;;;923733;151;27908;-76
2023/05/02 12:43:03;;;;;;;2.45;2.25;;;23.50;46.50;;;;;;947197;148;27296;-76
2023/05/02 12:45:32;;;;;;;2.77;2.58;;;23.50;46.30;;;;;;946895;148;27352;-76
2023/05/02 12:47:55;;;;;;;3.33;3.02;;;23.50;46.20;;;;;;945288;148;27360;-76
2023/05/02 12:50:22;;;;;;;3.20;2.90;;;23.50;46.10;;;;;;947245;148;27281;-76